Observations for SAINT-BRIEUC ARMOR, France (LFRT)

LFRT 162100Z AUTO 00000KT CAVOK 15/14 Q1018 
LFRT 162030Z AUTO 02002KT CAVOK 16/14 Q1018 
LFRT 162000Z AUTO 02003KT CAVOK 16/14 Q1018 
LFRT 161930Z AUTO VRB03KT CAVOK 17/14 Q1018 
LFRT 161900Z AUTO 03005KT CAVOK 18/14 Q1018 
LFRT 161830Z AUTO 03005KT CAVOK 18/13 Q1018 
LFRT 161800Z AUTO 03006KT CAVOK 18/13 Q1018 
LFRT 161730Z AUTO 03006KT 360V070 CAVOK 19/12 Q1018 
LFRT 161700Z AUTO 04008KT 010V080 CAVOK 20/13 Q1018 
LFRT 161630Z AUTO 05008KT 010V080 CAVOK 20/13 Q1018 
LFRT 161600Z AUTO 04008KT CAVOK 20/13 Q1018 
LFRT 161530Z AUTO 03009KT 360V060 CAVOK 20/13 Q1018 
LFRT 161500Z AUTO 05008KT CAVOK 20/14 Q1018 
LFRT 161430Z AUTO 04009KT CAVOK 20/14 Q1019 
LFRT 161400Z AUTO 03009KT CAVOK 20/14 Q1019 
LFRT 161330Z AUTO 05008KT CAVOK 21/15 Q1019 
LFRT 161300Z AUTO 05008KT 030V090 CAVOK 21/15 Q1019 
LFRT 161230Z AUTO 04007KT 010V090 CAVOK 21/15 Q1019 
LFRT 161200Z AUTO 05007KT 010V080 CAVOK 21/15 Q1019 
LFRT 161130Z AUTO 05006KT 360V110 CAVOK 20/15 Q1019 
LFRT 161100Z AUTO 05007KT 010V090 CAVOK 21/15 Q1019 
LFRT 161030Z AUTO 01005KT 330V050 CAVOK 20/15 Q1019 
LFRT 161000Z AUTO VRB04KT 9999 FEW022 20/15 Q1019   
LFRT 160930Z AUTO VRB02KT 9999 FEW022 20/14 Q1019   
LFRT 160900Z AUTO VRB03KT 9999 FEW018 19/14 Q1019   
LFRT 160830Z AUTO 36004KT 290V050 CAVOK 19/15 Q1020 
LFRT 160800Z AUTO VRB02KT 9999 FEW011 18/15 Q1020   
LFRT 160730Z AUTO VRB03KT 9999 FEW008 17/14 Q1020   
LFRT 160700Z AUTO VRB02KT CAVOK 17/15 Q1020 
LFRT 160630Z AUTO 00000KT 9000 NSC 15/14 Q1020  
LFRT 160600Z AUTO 27001KT CAVOK 14/13 Q1019